sensor_id;sensor_type;location;lat;lon;timestamp;pressure;altitude;pressure_sealevel;temperature;humidity
8101;BME280;4093;53.470;9.832;2024-03-23T00:53:37;100700.91;;;11.41;78.28
8101;BME280;4093;53.470;9.832;2024-03-23T00:56:03;100716.97;;;11.55;79.15
8101;BME280;4093;53.470;9.832;2024-03-23T00:58:30;100710.97;;;11.53;78.28
8101;BME280;4093;53.470;9.832;2024-03-23T01:00:56;100712.44;;;11.66;78.40
8101;BME280;4093;53.470;9.832;2024-03-23T01:03:23;100698.72;;;11.61;77.95
8101;BME280;4093;53.470;9.832;2024-03-23T01:05:48;100703.97;;;11.58;79.06
8101;BME280;4093;53.470;9.832;2024-03-23T01:08:15;100696.53;;;11.43;80.05
8101;BME280;4093;53.470;9.832;2024-03-23T01:10:42;100700.75;;;11.47;78.60
8101;BME280;4093;53.470;9.832;2024-03-23T01:13:09;100700.75;;;11.47;79.33
8101;BME280;4093;53.470;9.832;2024-03-23T01:15:35;100696.56;;;11.41;80.28
8101;BME280;4093;53.470;9.832;2024-03-23T01:18:03;100691.97;;;11.54;79.22
8101;BME280;4093;53.470;9.832;2024-03-23T01:20:28;100678.59;;;11.35;78.85
8101;BME280;4093;53.470;9.832;2024-03-23T01:22:55;100666.94;;;11.16;80.14
8101;BME280;4093;53.470;9.832;2024-03-23T01:25:21;100678.78;;;11.26;79.29
8101;BME280;4093;53.470;9.832;2024-03-23T01:27:49;100677.28;;;11.14;79.73
8101;BME280;4093;53.470;9.832;2024-03-23T01:30:15;100677.13;;;11.22;79.47
8101;BME280;4093;53.470;9.832;2024-03-23T01:32:41;100687.28;;;11.32;79.23
8101;BME280;4093;53.470;9.832;2024-03-23T01:35:08;100678.75;;;11.27;78.20
8101;BME280;4093;53.470;9.832;2024-03-23T01:37:35;100659.06;;;11.19;78.63
8101;BME280;4093;53.470;9.832;2024-03-23T01:40:01;100657.63;;;11.05;79.97
8101;BME280;4093;53.470;9.832;2024-03-23T01:42:29;100672.91;;;11.18;80.70
8101;BME280;4093;53.470;9.832;2024-03-23T01:44:56;100668.50;;;11.21;79.70
8101;BME280;4093;53.470;9.832;2024-03-23T01:47:23;100647.09;;;11.15;79.14
8101;BME280;4093;53.470;9.832;2024-03-23T01:49:49;100649.03;;;11.05;79.29
8101;BME280;4093;53.470;9.832;2024-03-23T01:52:17;100649.59;;;11.19;79.44
8101;BME280;4093;53.470;9.832;2024-03-23T01:54:43;100631.16;;;10.94;79.05
8101;BME280;4093;53.470;9.832;2024-03-23T01:57:10;100634.28;;;11.08;79.90
8101;BME280;4093;53.470;9.832;2024-03-23T01:59:36;100624.72;;;11.12;79.18
8101;BME280;4093;53.470;9.832;2024-03-23T02:02:04;100623.97;;;11.07;79.67
8101;BME280;4093;53.470;9.832;2024-03-23T02:04:30;100622.53;;;10.94;80.36
8101;BME280;4093;53.470;9.832;2024-03-23T02:06:57;100627.22;;;11.15;79.39
8101;BME280;4093;53.470;9.832;2024-03-23T02:09:22;100624.91;;;11.04;78.86
8101;BME280;4093;53.470;9.832;2024-03-23T02:11:49;100608.13;;;10.82;80.13
8101;BME280;4093;53.470;9.832;2024-03-23T02:14:15;100620.88;;;10.89;80.70
8101;BME280;4093;53.470;9.832;2024-03-23T02:16:42;100603.88;;;10.78;80.60
8101;BME280;4093;53.470;9.832;2024-03-23T02:19:10;100610.78;;;10.79;80.98
8101;BME280;4093;53.470;9.832;2024-03-23T02:21:36;100614.63;;;11.00;80.90
8101;BME280;4093;53.470;9.832;2024-03-23T02:24:04;100613.88;;;10.95;81.03
8101;BME280;4093;53.470;9.832;2024-03-23T02:26:31;100604.53;;;10.89;80.27
8101;BME280;4093;53.470;9.832;2024-03-23T02:28:57;100600.38;;;10.80;80.05
8101;BME280;4093;53.470;9.832;2024-03-23T02:31:23;100603.94;;;10.76;81.03
8101;BME280;4093;53.470;9.832;2024-03-23T02:33:49;100599.28;;;10.50;82.28
8101;BME280;4093;53.470;9.832;2024-03-23T02:36:16;100607.47;;;10.72;81.39
8101;BME280;4093;53.470;9.832;2024-03-23T02:38:41;100603.81;;;10.82;81.82
8101;BME280;4093;53.470;9.832;2024-03-23T02:41:10;100598.69;;;10.79;81.07
8101;BME280;4093;53.470;9.832;2024-03-23T02:43:35;100588.59;;;10.67;81.94
8101;BME280;4093;53.470;9.832;2024-03-23T02:46:02;100594.72;;;10.63;81.48
8101;BME280;4093;53.470;9.832;2024-03-23T02:48:29;100590.75;;;10.47;82.32
8101;BME280;4093;53.470;9.832;2024-03-23T02:50:56;100586.34;;;10.50;81.34
8101;BME280;4093;53.470;9.832;2024-03-23T02:53:22;100588.91;;;10.52;80.95
8101;BME280;4093;53.470;9.832;2024-03-23T02:55:48;100586.25;;;10.55;82.06
8101;BME280;4093;53.470;9.832;2024-03-23T02:58:16;100576.94;;;10.48;81.72
8101;BME280;4093;53.470;9.832;2024-03-23T03:00:42;100581.78;;;10.63;81.30
8101;BME280;4093;53.470;9.832;2024-03-23T03:03:08;100556.25;;;10.48;81.86
8101;BME280;4093;53.470;9.832;2024-03-23T03:05:35;100553.19;;;10.27;83.04
8101;BME280;4093;53.470;9.832;2024-03-23T03:08:00;100561.59;;;10.38;82.60
8101;BME280;4093;53.470;9.832;2024-03-23T03:10:27;100559.00;;;10.38;82.39
8101;BME280;4093;53.470;9.832;2024-03-23T03:12:53;100548.44;;;10.04;83.22
8101;BME280;4093;53.470;9.832;2024-03-23T03:15:21;100564.13;;;10.41;83.21
8101;BME280;4093;53.470;9.832;2024-03-23T03:17:47;100568.03;;;10.61;81.65
8101;BME280;4093;53.470;9.832;2024-03-23T03:20:13;100552.94;;;10.39;81.52
8101;BME280;4093;53.470;9.832;2024-03-23T03:22:41;100551.19;;;10.41;81.27
8101;BME280;4093;53.470;9.832;2024-03-23T03:25:08;100546.16;;;10.35;82.40
8101;BME280;4093;53.470;9.832;2024-03-23T03:27:33;100562.06;;;10.57;81.24
8101;BME280;4093;53.470;9.832;2024-03-23T03:30:00;100545.78;;;10.54;81.76
8101;BME280;4093;53.470;9.832;2024-03-23T03:32:29;100537.56;;;10.33;82.39
8101;BME280;4093;53.470;9.832;2024-03-23T03:34:56;100540.69;;;10.49;82.92
8101;BME280;4093;53.470;9.832;2024-03-23T03:37:22;100541.53;;;10.50;81.60
8101;BME280;4093;53.470;9.832;2024-03-23T03:39:48;100538.63;;;10.67;81.52
8101;BME280;4093;53.470;9.832;2024-03-23T03:42:14;100517.34;;;10.09;82.04
8101;BME280;4093;53.470;9.832;2024-03-23T03:44:41;100515.41;;;10.20;82.49
8101;BME280;4093;53.470;9.832;2024-03-23T03:47:07;100448.72;;;9.95;82.22
8101;BME280;4093;53.470;9.832;2024-03-23T03:49:35;100516.03;;;10.33;81.93
8101;BME280;4093;53.470;9.832;2024-03-23T03:52:01;100505.19;;;10.15;82.40
8101;BME280;4093;53.470;9.832;2024-03-23T03:54:27;100470.81;;;10.10;82.53
8101;BME280;4093;53.470;9.832;2024-03-23T03:56:53;100514.41;;;10.29;82.79
8101;BME280;4093;53.470;9.832;2024-03-23T03:59:20;100507.66;;;10.20;81.31
8101;BME280;4093;53.470;9.832;2024-03-23T04:01:46;100505.31;;;10.08;82.57
8101;BME280;4093;53.470;9.832;2024-03-23T04:04:13;100500.50;;;9.89;83.18
8101;BME280;4093;53.470;9.832;2024-03-23T04:06:40;100503.22;;;9.82;83.95
8101;BME280;4093;53.470;9.832;2024-03-23T04:09:07;100511.47;;;10.01;82.92
8101;BME280;4093;53.470;9.832;2024-03-23T04:11:33;100515.59;;;10.11;82.18
8101;BME280;4093;53.470;9.832;2024-03-23T04:14:00;100502.59;;;10.14;81.84
8101;BME280;4093;53.470;9.832;2024-03-23T04:16:27;100455.84;;;9.84;82.62
8101;BME280;4093;53.470;9.832;2024-03-23T04:18:53;100481.44;;;9.96;82.72
8101;BME280;4093;53.470;9.832;2024-03-23T04:21:19;100475.59;;;10.30;81.70
8101;BME280;4093;53.470;9.832;2024-03-23T04:23:48;100472.31;;;10.22;81.75
8101;BME280;4093;53.470;9.832;2024-03-23T04:26:14;100468.06;;;10.19;81.34
8101;BME280;4093;53.470;9.832;2024-03-23T04:28:41;100469.84;;;10.16;80.01
8101;BME280;4093;53.470;9.832;2024-03-23T04:31:07;100491.31;;;10.18;80.91
8101;BME280;4093;53.470;9.832;2024-03-23T04:33:34;100478.25;;;9.82;82.88
8101;BME280;4093;53.470;9.832;2024-03-23T04:35:59;100485.53;;;9.60;83.84
8101;BME280;4093;53.470;9.832;2024-03-23T04:38:26;100496.38;;;9.79;83.14
8101;BME280;4093;53.470;9.832;2024-03-23T04:40:55;100491.91;;;9.39;84.94
8101;BME280;4093;53.470;9.832;2024-03-23T04:43:21;100511.81;;;9.82;83.95
8101;BME280;4093;53.470;9.832;2024-03-23T04:45:48;100516.84;;;9.90;83.94
8101;BME280;4093;53.470;9.832;2024-03-23T04:48:15;100510.09;;;9.83;82.71
8101;BME280;4093;53.470;9.832;2024-03-23T04:50:41;100502.31;;;9.84;83.74
8101;BME280;4093;53.470;9.832;2024-03-23T04:53:08;100495.59;;;9.74;83.82
8101;BME280;4093;53.470;9.832;2024-03-23T04:55:34;100478.09;;;9.91;82.76
8101;BME280;4093;53.470;9.832;2024-03-23T04:58:02;100477.69;;;9.65;84.74
8101;BME280;4093;53.470;9.832;2024-03-23T05:00:28;100484.97;;;9.91;82.85
8101;BME280;4093;53.470;9.832;2024-03-23T05:02:55;100492.50;;;10.03;82.82
8101;BME280;4093;53.470;9.832;2024-03-23T05:05:22;100495.13;;;10.00;83.18
8101;BME280;4093;53.470;9.832;2024-03-23T05:07:47;100476.13;;;10.03;82.72
8101;BME280;4093;53.470;9.832;2024-03-23T05:10:14;100483.56;;;9.75;83.92
8101;BME280;4093;53.470;9.832;2024-03-23T05:12:40;100470.06;;;9.60;84.19
8101;BME280;4093;53.470;9.832;2024-03-23T05:15:08;100477.75;;;9.63;84.85
8101;BME280;4093;53.470;9.832;2024-03-23T05:17:34;100464.91;;;9.59;84.35
8101;BME280;4093;53.470;9.832;2024-03-23T05:20:01;100486.00;;;9.82;83.93
8101;BME280;4093;53.470;9.832;2024-03-23T05:22:28;100470.72;;;9.71;83.11
8101;BME280;4093;53.470;9.832;2024-03-23T05:24:55;100466.47;;;9.69;84.08
8101;BME280;4093;53.470;9.832;2024-03-23T05:27:21;100481.56;;;9.89;82.67
8101;BME280;4093;53.470;9.832;2024-03-23T05:29:48;100479.81;;;9.89;82.33
8101;BME280;4093;53.470;9.832;2024-03-23T05:32:15;100479.88;;;9.88;83.24
8101;BME280;4093;53.470;9.832;2024-03-23T05:34:42;100450.22;;;9.62;83.43
8101;BME280;4093;53.470;9.832;2024-03-23T05:37:09;100457.31;;;9.51;84.56
8101;BME280;4093;53.470;9.832;2024-03-23T05:39:36;100400.91;;;9.30;84.16
8101;BME280;4093;53.470;9.832;2024-03-23T05:42:01;100458.44;;;9.83;83.69
8101;BME280;4093;53.470;9.832;2024-03-23T05:44:28;100452.91;;;10.01;82.81
8101;BME280;4093;53.470;9.832;2024-03-23T05:46:54;100438.44;;;9.92;82.19
8101;BME280;4093;53.470;9.832;2024-03-23T05:49:22;100442.53;;;10.03;82.25
8101;BME280;4093;53.470;9.832;2024-03-23T05:51:48;100428.72;;;10.07;81.96
8101;BME280;4093;53.470;9.832;2024-03-23T05:54:14;100435.06;;;9.90;82.01
8101;BME280;4093;53.470;9.832;2024-03-23T05:56:40;100441.88;;;9.94;81.97
8101;BME280;4093;53.470;9.832;2024-03-23T05:59:07;100443.09;;;9.75;83.82
8101;BME280;4093;53.470;9.832;2024-03-23T06:01:33;100447.72;;;10.03;82.55
8101;BME280;4093;53.470;9.832;2024-03-23T06:04:00;100435.88;;;9.92;82.28
8101;BME280;4093;53.470;9.832;2024-03-23T06:06:29;100445.13;;;10.03;82.58
8101;BME280;4093;53.470;9.832;2024-03-23T06:08:55;100445.84;;;10.11;81.73
8101;BME280;4093;53.470;9.832;2024-03-23T06:11:22;100453.59;;;10.11;82.83
8101;BME280;4093;53.470;9.832;2024-03-23T06:13:48;100445.28;;;9.96;82.11
8101;BME280;4093;53.470;9.832;2024-03-23T06:16:14;100445.81;;;10.12;81.22
8101;BME280;4093;53.470;9.832;2024-03-23T06:18:40;100454.03;;;10.33;80.48
8101;BME280;4093;53.470;9.832;2024-03-23T06:21:13;100448.84;;;10.33;80.83
8101;BME280;4093;53.470;9.832;2024-03-23T06:23:40;100439.34;;;10.35;80.39
8101;BME280;4093;53.470;9.832;2024-03-23T06:26:07;100442.38;;;10.54;80.81
8101;BME280;4093;53.470;9.832;2024-03-23T06:28:34;100444.63;;;10.69;79.78
8101;BME280;4093;53.470;9.832;2024-03-23T06:31:01;100450.66;;;11.05;79.71
8101;BME280;4093;53.470;9.832;2024-03-23T06:33:27;100445.69;;;11.32;78.64
8101;BME280;4093;53.470;9.832;2024-03-23T06:35:54;100439.59;;;11.66;76.03
8101;BME280;4093;53.470;9.832;2024-03-23T06:38:20;100422.16;;;11.41;77.11
8101;BME280;4093;53.470;9.832;2024-03-23T06:40:48;100434.94;;;12.11;75.57
8101;BME280;4093;53.470;9.832;2024-03-23T06:43:16;100440.84;;;13.29;73.20
8101;BME280;4093;53.470;9.832;2024-03-23T06:45:42;100428.41;;;14.10;69.81
8101;BME280;4093;53.470;9.832;2024-03-23T06:48:08;100402.63;;;13.32;70.51
8101;BME280;4093;53.470;9.832;2024-03-23T06:50:35;100399.09;;;13.58;68.78
8101;BME280;4093;53.470;9.832;2024-03-23T06:53:02;100396.56;;;13.80;68.24
8101;BME280;4093;53.470;9.832;2024-03-23T06:55:27;100404.09;;;14.57;65.72
8101;BME280;4093;53.470;9.832;2024-03-23T06:57:56;100387.06;;;14.03;67.41
8101;BME280;4093;53.470;9.832;2024-03-23T07:00:22;100324.31;;;13.18;68.26
8101;BME280;4093;53.470;9.832;2024-03-23T07:02:50;100382.56;;;13.09;69.52
8101;BME280;4093;53.470;9.832;2024-03-23T07:05:16;100378.84;;;13.43;68.76
8101;BME280;4093;53.470;9.832;2024-03-23T07:07:43;100380.59;;;12.91;69.80
8101;BME280;4093;53.470;9.832;2024-03-23T07:10:09;100387.97;;;13.78;68.83
8101;BME280;4093;53.470;9.832;2024-03-23T07:12:35;100374.50;;;14.60;66.50
8101;BME280;4093;53.470;9.832;2024-03-23T07:15:03;100375.56;;;14.32;65.75
8101;BME280;4093;53.470;9.832;2024-03-23T07:17:30;100378.94;;;14.34;66.24
8101;BME280;4093;53.470;9.832;2024-03-23T07:19:58;100365.84;;;13.92;66.80
8101;BME280;4093;53.470;9.832;2024-03-23T07:22:26;100389.56;;;13.59;68.15
8101;BME280;4093;53.470;9.832;2024-03-23T07:24:52;100398.72;;;14.62;65.91
8101;BME280;4093;53.470;9.832;2024-03-23T07:27:19;100381.47;;;15.01;62.54
8101;BME280;4093;53.470;9.832;2024-03-23T07:29:45;100388.91;;;15.31;63.68
8101;BME280;4093;53.470;9.832;2024-03-23T07:32:13;100376.53;;;15.16;64.01
8101;BME280;4093;53.470;9.832;2024-03-23T07:34:39;100377.63;;;15.10;64.19
8101;BME280;4093;53.470;9.832;2024-03-23T07:37:05;100342.47;;;15.60;63.26
8101;BME280;4093;53.470;9.832;2024-03-23T07:39:31;100370.25;;;15.61;61.96
8101;BME280;4093;53.470;9.832;2024-03-23T07:41:59;100378.81;;;17.28;59.35
8101;BME280;4093;53.470;9.832;2024-03-23T07:44:25;100372.09;;;17.91;55.46
8101;BME280;4093;53.470;9.832;2024-03-23T07:46:52;100378.41;;;19.26;54.46
8101;BME280;4093;53.470;9.832;2024-03-23T07:49:19;100375.53;;;19.59;52.42
8101;BME280;4093;53.470;9.832;2024-03-23T07:51:46;100345.88;;;18.54;54.18
8101;BME280;4093;53.470;9.832;2024-03-23T07:54:11;100358.69;;;19.49;52.78
8101;BME280;4093;53.470;9.832;2024-03-23T07:56:38;100351.66;;;18.91;53.35
8101;BME280;4093;53.470;9.832;2024-03-23T07:59:04;100349.88;;;19.79;50.35
8101;BME280;4093;53.470;9.832;2024-03-23T08:01:31;100343.94;;;21.11;48.80
8101;BME280;4093;53.470;9.832;2024-03-23T08:03:56;100336.75;;;21.89;47.01
8101;BME280;4093;53.470;9.832;2024-03-23T08:06:25;100345.22;;;23.02;44.16
8101;BME280;4093;53.470;9.832;2024-03-23T08:08:52;100338.78;;;23.17;43.58
8101;BME280;4093;53.470;9.832;2024-03-23T08:11:25;100325.13;;;22.05;46.63
8101;BME280;4093;53.470;9.832;2024-03-23T08:13:50;100334.97;;;21.77;47.23
8101;BME280;4093;53.470;9.832;2024-03-23T08:16:17;100339.28;;;23.45;44.90
8101;BME280;4093;53.470;9.832;2024-03-23T08:18:43;100325.97;;;21.43;46.42
8101;BME280;4093;53.470;9.832;2024-03-23T08:21:10;100337.63;;;22.14;47.44
8101;BME280;4093;53.470;9.832;2024-03-23T08:23:37;100330.72;;;20.60;48.57
8101;BME280;4093;53.470;9.832;2024-03-23T08:26:05;100333.28;;;19.78;50.57
8101;BME280;4093;53.470;9.832;2024-03-23T08:28:31;100327.50;;;18.70;51.49
8101;BME280;4093;53.470;9.832;2024-03-23T08:31:01;100335.81;;;17.67;54.86
8101;BME280;4093;53.470;9.832;2024-03-23T08:33:27;100366.78;;;20.02;51.20
8101;BME280;4093;53.470;9.832;2024-03-23T08:35:54;100338.22;;;19.97;49.06
8101;BME280;4093;53.470;9.832;2024-03-23T08:38:20;100335.53;;;19.41;49.46
8101;BME280;4093;53.470;9.832;2024-03-23T08:40:56;100338.69;;;18.58;53.30
8101;BME280;4093;53.470;9.832;2024-03-23T08:43:22;100351.66;;;18.91;53.14
8101;BME280;4093;53.470;9.832;2024-03-23T08:45:49;100351.34;;;20.66;48.29
8101;BME280;4093;53.470;9.832;2024-03-23T08:48:15;100337.88;;;20.58;47.62
8101;BME280;4093;53.470;9.832;2024-03-23T08:50:42;100319.06;;;20.37;49.17
8101;BME280;4093;53.470;9.832;2024-03-23T08:53:08;100326.50;;;17.95;51.27
8101;BME280;4093;53.470;9.832;2024-03-23T08:55:35;100337.41;;;17.54;53.58
8101;BME280;4093;53.470;9.832;2024-03-23T08:58:03;100338.59;;;17.82;53.46
8101;BME280;4093;53.470;9.832;2024-03-23T09:00:29;100349.28;;;17.44;53.67
8101;BME280;4093;53.470;9.832;2024-03-23T09:02:57;100356.84;;;19.07;52.22
8101;BME280;4093;53.470;9.832;2024-03-23T09:05:22;100342.19;;;18.88;51.18
8101;BME280;4093;53.470;9.832;2024-03-23T09:07:50;100357.28;;;19.72;50.90
8101;BME280;4093;53.470;9.832;2024-03-23T09:10:15;100357.34;;;19.42;51.42
8101;BME280;4093;53.470;9.832;2024-03-23T09:12:42;100327.19;;;17.83;52.18
8101;BME280;4093;53.470;9.832;2024-03-23T09:15:11;100336.97;;;16.41;55.98
8101;BME280;4093;53.470;9.832;2024-03-23T09:17:37;100356.84;;;15.49;57.72
8101;BME280;4093;53.470;9.832;2024-03-23T09:20:04;100349.16;;;15.26;58.40
8101;BME280;4093;53.470;9.832;2024-03-23T09:22:31;100341.84;;;13.61;62.01
8101;BME280;4093;53.470;9.832;2024-03-23T09:24:56;100351.50;;;14.27;60.37
8101;BME280;4093;53.470;9.832;2024-03-23T09:27:23;100358.72;;;13.97;60.81
8101;BME280;4093;53.470;9.832;2024-03-23T09:29:49;100366.13;;;14.07;61.03
8101;BME280;4093;53.470;9.832;2024-03-23T09:32:17;100356.78;;;14.02;60.61
8101;BME280;4093;53.470;9.832;2024-03-23T09:34:43;100366.91;;;14.55;59.81
8101;BME280;4093;53.470;9.832;2024-03-23T09:37:10;100347.97;;;14.72;59.02
8101;BME280;4093;53.470;9.832;2024-03-23T09:39:35;100348.09;;;14.47;59.63
8101;BME280;4093;53.470;9.832;2024-03-23T09:42:02;100354.75;;;14.76;60.18
8101;BME280;4093;53.470;9.832;2024-03-23T09:44:29;100376.03;;;15.08;59.03
8101;BME280;4093;53.470;9.832;2024-03-23T09:46:56;100358.53;;;14.69;58.89
8101;BME280;4093;53.470;9.832;2024-03-23T09:49:23;100348.53;;;14.36;59.36
8101;BME280;4093;53.470;9.832;2024-03-23T09:51:50;100355.28;;;13.96;60.56
8101;BME280;4093;53.470;9.832;2024-03-23T09:54:16;100365.03;;;14.35;60.42
8101;BME280;4093;53.470;9.832;2024-03-23T09:56:43;100342.38;;;13.46;61.56
8101;BME280;4093;53.470;9.832;2024-03-23T09:59:09;100354.63;;;14.13;60.91
8101;BME280;4093;53.470;9.832;2024-03-23T10:01:36;100297.91;;;13.79;59.93
8101;BME280;4093;53.470;9.832;2024-03-23T10:04:02;100350.66;;;14.48;59.52
8101;BME280;4093;53.470;9.832;2024-03-23T10:06:31;100326.91;;;13.90;59.24
8101;BME280;4093;53.470;9.832;2024-03-23T10:08:57;100349.81;;;14.26;59.16
8101;BME280;4093;53.470;9.832;2024-03-23T10:11:23;100349.06;;;14.66;58.46
8101;BME280;4093;53.470;9.832;2024-03-23T10:13:51;100347.47;;;14.84;58.42
8101;BME280;4093;53.470;9.832;2024-03-23T10:16:22;100302.00;;;14.93;58.13
8101;BME280;4093;53.470;9.832;2024-03-23T10:18:48;100324.31;;;14.57;57.73
8101;BME280;4093;53.470;9.832;2024-03-23T10:21:16;100301.78;;;14.56;55.95
8101;BME280;4093;53.470;9.832;2024-03-23T10:23:44;100313.84;;;14.79;55.86
8101;BME280;4093;53.470;9.832;2024-03-23T10:26:17;100309.94;;;14.90;55.91
8101;BME280;4093;53.470;9.832;2024-03-23T10:28:51;100296.44;;;14.16;55.61
8101;BME280;4093;53.470;9.832;2024-03-23T10:31:18;100308.94;;;14.72;55.85
8101;BME280;4093;53.470;9.832;2024-03-23T10:33:45;100313.09;;;14.76;57.29
8101;BME280;4093;53.470;9.832;2024-03-23T10:36:12;100321.41;;;15.45;56.23
8101;BME280;4093;53.470;9.832;2024-03-23T10:38:40;100244.94;;;15.07;54.63
8101;BME280;4093;53.470;9.832;2024-03-23T10:41:09;100309.00;;;15.50;53.90
8101;BME280;4093;53.470;9.832;2024-03-23T10:43:36;100303.19;;;14.86;53.78
8101;BME280;4093;53.470;9.832;2024-03-23T10:46:03;100310.59;;;13.63;58.20
8101;BME280;4093;53.470;9.832;2024-03-23T10:48:29;100324.59;;;13.10;61.80
8101;BME280;4093;53.470;9.832;2024-03-23T10:50:56;100320.25;;;12.59;61.65
8101;BME280;4093;53.470;9.832;2024-03-23T10:53:26;100316.78;;;12.85;60.68
8101;BME280;4093;53.470;9.832;2024-03-23T10:55:54;100317.84;;;12.53;61.59
8101;BME280;4093;53.470;9.832;2024-03-23T10:58:24;100315.00;;;12.61;61.30
8101;BME280;4093;53.470;9.832;2024-03-23T11:00:52;100313.78;;;12.98;61.03
8101;BME280;4093;53.470;9.832;2024-03-23T11:03:34;100319.38;;;14.06;59.78
8101;BME280;4093;53.470;9.832;2024-03-23T11:06:02;100313.59;;;14.86;58.43
8101;BME280;4093;53.470;9.832;2024-03-23T11:08:38;100305.69;;;14.87;57.85
8101;BME280;4093;53.470;9.832;2024-03-23T11:11:28;100309.34;;;15.03;58.53
8101;BME280;4093;53.470;9.832;2024-03-23T11:13:59;100313.09;;;15.37;58.26
8101;BME280;4093;53.470;9.832;2024-03-23T11:16:27;100283.50;;;14.36;56.91
8101;BME280;4093;53.470;9.832;2024-03-23T11:18:54;100298.28;;;14.57;56.77
8101;BME280;4093;53.470;9.832;2024-03-23T11:21:52;100303.28;;;15.03;55.93
8101;BME280;4093;53.470;9.832;2024-03-23T11:24:19;100290.13;;;15.06;56.92
8101;BME280;4093;53.470;9.832;2024-03-23T11:26:48;100284.94;;;13.77;58.40
8101;BME280;4093;53.470;9.832;2024-03-23T11:29:22;100293.34;;;13.38;60.51
8101;BME280;4093;53.470;9.832;2024-03-23T11:31:58;100332.66;;;13.28;62.44
8101;BME280;4093;53.470;9.832;2024-03-23T11:34:24;100325.72;;;12.77;66.03
8101;BME280;4093;53.470;9.832;2024-03-23T11:37:03;100314.97;;;12.08;65.11
8101;BME280;4093;53.470;9.832;2024-03-23T11:39:29;100320.97;;;13.14;64.54
8101;BME280;4093;53.470;9.832;2024-03-23T11:41:57;100263.81;;;12.66;65.54
8101;BME280;4093;53.470;9.832;2024-03-23T11:44:25;100318.16;;;13.69;65.94
8101;BME280;4093;53.470;9.832;2024-03-23T11:46:53;100314.59;;;13.95;66.13
8101;BME280;4093;53.470;9.832;2024-03-23T11:49:22;100310.81;;;14.26;64.19
8101;BME280;4093;53.470;9.832;2024-03-23T11:51:50;100292.84;;;13.74;66.03
8101;BME280;4093;53.470;9.832;2024-03-23T11:54:20;100314.72;;;14.58;64.70
8101;BME280;4093;53.470;9.832;2024-03-23T11:56:57;100304.91;;;14.65;64.75
8101;BME280;4093;53.470;9.832;2024-03-23T11:59:34;100297.94;;;15.26;62.27
8101;BME280;4093;53.470;9.832;2024-03-23T12:02:06;100300.66;;;15.82;60.31
8101;BME280;4093;53.470;9.832;2024-03-23T12:04:32;100275.44;;;15.82;58.44
8101;BME280;4093;53.470;9.832;2024-03-23T12:07:10;100274.06;;;16.11;57.71
8101;BME280;4093;53.470;9.832;2024-03-23T12:09:36;100259.94;;;15.79;57.78
8101;BME280;4093;53.470;9.832;2024-03-23T12:12:08;100256.91;;;15.69;57.59
8101;BME280;4093;53.470;9.832;2024-03-23T12:14:35;100267.00;;;14.79;57.60
8101;BME280;4093;53.470;9.832;2024-03-23T12:17:10;100261.25;;;14.51;56.82
8101;BME280;4093;53.470;9.832;2024-03-23T12:19:37;100269.25;;;14.87;55.32
8101;BME280;4093;53.470;9.832;2024-03-23T12:22:04;100247.53;;;14.68;54.55
8101;BME280;4093;53.470;9.832;2024-03-23T12:24:30;100253.50;;;15.11;54.76
8101;BME280;4093;53.470;9.832;2024-03-23T12:27:00;100239.72;;;15.07;53.12
8101;BME280;4093;53.470;9.832;2024-03-23T12:29:27;100260.56;;;15.46;53.40
8101;BME280;4093;53.470;9.832;2024-03-23T12:31:55;100242.69;;;14.99;53.07
8101;BME280;4093;53.470;9.832;2024-03-23T12:34:21;100196.94;;;13.90;55.78
8101;BME280;4093;53.470;9.832;2024-03-23T12:36:48;100267.69;;;12.54;61.50
8101;BME280;4093;53.470;9.832;2024-03-23T12:39:14;100269.53;;;11.96;62.99
8101;BME280;4093;53.470;9.832;2024-03-23T12:41:41;100278.41;;;11.28;65.31
8101;BME280;4093;53.470;9.832;2024-03-23T12:44:06;100282.00;;;10.91;65.04
8101;BME280;4093;53.470;9.832;2024-03-23T12:46:34;100327.31;;;11.39;65.87
8101;BME280;4093;53.470;9.832;2024-03-23T12:49:01;100338.47;;;11.08;65.80
8101;BME280;4093;53.470;9.832;2024-03-23T12:51:28;100333.22;;;10.77;68.59
8101;BME280;4093;53.470;9.832;2024-03-23T12:53:54;100347.22;;;10.32;72.85
8101;BME280;4093;53.470;9.832;2024-03-23T12:56:21;100341.00;;;10.01;74.59
8101;BME280;4093;53.470;9.832;2024-03-23T12:58:46;100360.84;;;10.76;73.43
8101;BME280;4093;53.470;9.832;2024-03-23T13:01:16;100358.44;;;11.03;72.94
8101;BME280;4093;53.470;9.832;2024-03-23T13:03:42;100371.88;;;11.17;74.46
8101;BME280;4093;53.470;9.832;2024-03-23T13:06:11;100354.13;;;11.03;73.98
8101;BME280;4093;53.470;9.832;2024-03-23T13:08:37;100383.06;;;10.83;73.76
8101;BME280;4093;53.470;9.832;2024-03-23T13:11:21;100380.47;;;11.19;71.70
8101;BME280;4093;53.470;9.832;2024-03-23T13:14:29;100389.56;;;11.00;73.53
8101;BME280;4093;53.470;9.832;2024-03-23T13:16:56;100402.47;;;11.35;72.63
8101;BME280;4093;53.470;9.832;2024-03-23T13:19:22;100393.78;;;11.04;73.56
8101;BME280;4093;53.470;9.832;2024-03-23T13:21:53;100383.00;;;10.51;74.69
8101;BME280;4093;53.470;9.832;2024-03-23T13:24:22;100394.94;;;10.92;74.89
8101;BME280;4093;53.470;9.832;2024-03-23T13:26:50;100390.81;;;10.83;74.77
8101;BME280;4093;53.470;9.832;2024-03-23T13:29:16;100385.63;;;10.85;74.67
8101;BME280;4093;53.470;9.832;2024-03-23T13:31:43;100389.50;;;11.35;73.98
8101;BME280;4093;53.470;9.832;2024-03-23T13:34:08;100384.69;;;12.15;71.60
8101;BME280;4093;53.470;9.832;2024-03-23T13:36:35;100372.03;;;11.11;75.51
8101;BME280;4093;53.470;9.832;2024-03-23T13:39:03;100378.75;;;11.18;74.67
8101;BME280;4093;53.470;9.832;2024-03-23T13:41:34;100364.16;;;11.16;72.41
8101;BME280;4093;53.470;9.832;2024-03-23T13:44:00;100352.22;;;10.76;71.34
8101;BME280;4093;53.470;9.832;2024-03-23T13:46:27;100388.69;;;11.33;71.23
8101;BME280;4093;53.470;9.832;2024-03-23T13:48:53;100356.50;;;11.11;70.53
8101;BME280;4093;53.470;9.832;2024-03-23T13:51:23;100382.59;;;11.36;70.77
8101;BME280;4093;53.470;9.832;2024-03-23T13:53:50;100380.81;;;12.58;69.19
8101;BME280;4093;53.470;9.832;2024-03-23T13:56:18;100374.94;;;12.80;67.01
8101;BME280;4093;53.470;9.832;2024-03-23T13:58:43;100381.66;;;12.85;67.64
8101;BME280;4093;53.470;9.832;2024-03-23T14:01:13;100354.16;;;12.25;66.48
8101;BME280;4093;53.470;9.832;2024-03-23T14:03:39;100348.13;;;12.53;65.19
8101;BME280;4093;53.470;9.832;2024-03-23T14:06:07;100345.22;;;12.07;65.90